^^
Paulen-Weather Station Historical Data
Daily Summary for May 21, 2022 Units:  English    Metric   Both
Daily Weekly Monthly Yearly Custom
  High: Low: Average:
Temperature: 59 °F 50 °F 53.2 °F
Dew Point: 51.8 °F 42.8 °F 47.5 °F
Humidity: 87% 65% 81%
Wind Speed: 13.7mph 1.2mph 5.2mph
Wind Gust: 9.3mph - -
Wind- - NW
Pressure: 29.8 in 29.8 in -
Precipitation: 0.02 in    
Historical Graphs
 
 
Tabular Data for May 21, 2022
Time Temperature Dew Point Pressure Wind Wind Speed Wind Gust Humidity Rainfall Rate (Hourly) solar
00:04 55.4 °F 42.8 °F 29.8 in N 8.1 mph 7.5 mph 65% 0 in 0 W/m2
00:09 55.4 °F 44.6 °F 29.8 in NNW 3.7 mph 3.1 mph 67% 0 in 0 W/m2
00:14 55.4 °F 44.6 °F 29.8 in NW 4.3 mph 3.7 mph 68% 0 in 0 W/m2
00:19 55.4 °F 44.6 °F 29.8 in WNW 3.7 mph 3.1 mph 69% 0 in 0 W/m2
00:24 55.4 °F 44.6 °F 29.8 in W 3.1 mph 3.1 mph 70% 0 in 0 W/m2
00:29 55.4 °F 44.6 °F 29.8 in NW 5.6 mph 4.3 mph 71% 0 in 0 W/m2
00:34 55.4 °F 46.4 °F 29.8 in WNW 3.7 mph 3.7 mph 71% 0 in 0 W/m2
00:39 53.6 °F 46.4 °F 29.8 in NW 3.1 mph 2.5 mph 71% 0 in 0 W/m2
00:44 53.6 °F 44.6 °F 29.8 in W 3.1 mph 3.1 mph 70% 0 in 0 W/m2
00:49 53.6 °F 44.6 °F 29.8 in WSW 2.5 mph 1.9 mph 69% 0 in 0 W/m2
00:54 53.6 °F 44.6 °F 29.8 in WNW 1.9 mph 1.9 mph 69% 0 in 0 W/m2
00:59 53.6 °F 44.6 °F 29.8 in W 1.2 mph 1.2 mph 69% 0 in 0 W/m2
01:04 53.6 °F 44.6 °F 29.8 in W 1.2 mph 0.6 mph 69% 0 in 0 W/m2
01:09 53.6 °F 44.6 °F 29.8 in W 2.5 mph 1.9 mph 68% 0 in 0 W/m2
01:14 53.6 °F 44.6 °F 29.8 in W 1.2 mph 0.6 mph 68% 0 in 0 W/m2
01:19 53.6 °F 44.6 °F 29.8 in W 1.2 mph 1.2 mph 68% 0 in 0 W/m2
01:24 53.6 °F 44.6 °F 29.8 in W 1.9 mph 1.2 mph 68% 0 in 0 W/m2
01:29 53.6 °F 42.8 °F 29.8 in WNW 4.3 mph 3.7 mph 67% 0 in 0 W/m2
01:34 53.6 °F 44.6 °F 29.8 in N 4.3 mph 3.7 mph 68% 0 in 0 W/m2
01:39 53.6 °F 44.6 °F 29.8 in NNW 5 mph 3.7 mph 69% 0 in 0 W/m2
01:44 53.6 °F 44.6 °F 29.8 in NW 3.7 mph 3.1 mph 70% 0 in 0 W/m2
01:49 53.6 °F 44.6 °F 29.8 in W 5 mph 3.1 mph 71% 0 in 0 W/m2
01:54 53.6 °F 44.6 °F 29.8 in WNW 5 mph 3.7 mph 71% 0 in 0 W/m2
01:59 53.6 °F 44.6 °F 29.8 in W 3.7 mph 2.5 mph 72% 0 in 0 W/m2
02:04 53.6 °F 44.6 °F 29.8 in WNW 3.7 mph 3.1 mph 73% 0 in 0 W/m2
02:09 53.6 °F 44.6 °F 29.8 in WNW 3.1 mph 3.1 mph 75% 0 in 0 W/m2
02:14 51.8 °F 44.6 °F 29.8 in NW 6.8 mph 3.7 mph 75% 0 in 0 W/m2
02:19 51.8 °F 44.6 °F 29.8 in NW 4.3 mph 3.7 mph 75% 0 in 0 W/m2
02:24 51.8 °F 44.6 °F 29.8 in NW 8.1 mph 5 mph 75% 0 in 0 W/m2
02:29 51.8 °F 44.6 °F 29.8 in NW 8.1 mph 4.3 mph 75% 0 in 0 W/m2
02:34 51.8 °F 44.6 °F 29.8 in NNW 3.7 mph 4.3 mph 76% 0 in 0 W/m2
02:39 51.8 °F 46.4 °F 29.8 in NW 5.6 mph 4.3 mph 77% 0 in 0 W/m2
02:44 51.8 °F 46.4 °F 29.8 in NW 8.7 mph 4.3 mph 78% 0 in 0 W/m2
02:49 51.8 °F 46.4 °F 29.8 in NW 7.5 mph 6.2 mph 80% 0 in 0 W/m2
02:54 51.8 °F 46.4 °F 29.8 in NW 7.5 mph 5 mph 80% 0 in 0 W/m2
02:59 51.8 °F 46.4 °F 29.8 in NW 7.5 mph 4.3 mph 81% 0 in 0 W/m2
03:04 51.8 °F 46.4 °F 29.8 in NNW 9.3 mph 7.5 mph 81% 0 in 0 W/m2
03:09 51.8 °F 46.4 °F 29.8 in NNW 9.3 mph 6.2 mph 82% 0 in 0 W/m2
03:14 51.8 °F 46.4 °F 29.8 in NW 9.9 mph 7.5 mph 83% 0 in 0 W/m2
03:19 51.8 °F 46.4 °F 29.8 in WNW 7.5 mph 3.7 mph 85% 0 in 0 W/m2
03:24 51.8 °F 46.4 °F 29.8 in NW 8.1 mph 6.2 mph 85% 0 in 0 W/m2
03:29 50 °F 46.4 °F 29.8 in NNW 7.5 mph 5.6 mph 86% 0 in 0 W/m2
03:34 50 °F 46.4 °F 29.8 in NW 8.1 mph 6.2 mph 86% 0 in 0 W/m2
03:39 50 °F 46.4 °F 29.8 in NW 7.5 mph 6.2 mph 87% 0 in 0 W/m2
03:44 50 °F 46.4 °F 29.8 in NW 9.3 mph 6.8 mph 87% 0 in 0 W/m2
03:49 50 °F 46.4 °F 29.8 in NW 5.6 mph 3.7 mph 87% 0 in 0 W/m2
03:54 50 °F 46.4 °F 29.8 in NW 6.8 mph 4.3 mph 86% 0 in 0 W/m2
03:59 50 °F 46.4 °F 29.8 in NW 5.6 mph 3.1 mph 86% 0 in 0 W/m2
04:04 50 °F 46.4 °F 29.8 in NW 5 mph 3.7 mph 86% 0 in 0 W/m2
04:09 50 °F 46.4 °F 29.8 in WNW 3.1 mph 1.9 mph 86% 0 in 0 W/m2
04:14 50 °F 46.4 °F 29.8 in W 2.5 mph 1.2 mph 86% 0 in 0 W/m2
04:19 50 °F 46.4 °F 29.8 in W 1.9 mph 1.2 mph 86% 0 in 0 W/m2
04:24 50 °F 44.6 °F 29.8 in WNW 2.5 mph 1.2 mph 86% 0 in 0 W/m2
04:29 50 °F 44.6 °F 29.8 in W 1.9 mph 1.2 mph 86% 0 in 0 W/m2
04:34 50 °F 44.6 °F 29.8 in W 2.5 mph 1.2 mph 86% 0 in 0 W/m2
04:39 50 °F 46.4 °F 29.8 in WNW 3.1 mph 3.1 mph 86% 0 in 0 W/m2
04:44 50 °F 46.4 °F 29.8 in WNW 4.3 mph 3.1 mph 86% 0 in 0 W/m2
04:49 50 °F 46.4 °F 29.8 in NW 2.5 mph 0.6 mph 86% 0 in 0 W/m2
04:54 50 °F 46.4 °F 29.8 in W 3.1 mph 1.9 mph 86% 0 in 0 W/m2
04:59 50 °F 46.4 °F 29.8 in NW 2.5 mph 3.7 mph 86% 0 in 0 W/m2
05:04 50 °F 46.4 °F 29.8 in W 4.3 mph 3.7 mph 86% 0 in 0 W/m2
05:09 50 °F 46.4 °F 29.8 in W 3.1 mph 3.1 mph 86% 0 in 0 W/m2
05:14 50 °F 46.4 °F 29.8 in NW 3.7 mph 1.9 mph 86% 0 in 0 W/m2
05:19 50 °F 46.4 °F 29.8 in WNW 3.1 mph 2.5 mph 86% 0 in 0 W/m2
05:24 50 °F 46.4 °F 29.8 in WNW 3.1 mph 1.9 mph 86% 0 in 5 W/m2
05:29 50 °F 46.4 °F 29.8 in NW 3.7 mph 3.1 mph 85% 0 in 7 W/m2
05:34 50 °F 44.6 °F 29.8 in WNW 3.7 mph 2.5 mph 85% 0 in 9 W/m2
05:39 50 °F 46.4 °F 29.8 in WNW 2.5 mph 1.2 mph 85% 0 in 11 W/m2
05:44 50 °F 46.4 °F 29.8 in WNW 1.9 mph 0.6 mph 85% 0 in 12 W/m2
05:49 50 °F 44.6 °F 29.8 in NW 3.1 mph 1.2 mph 84% 0 in 12 W/m2
05:54 50 °F 44.6 °F 29.8 in NW 3.1 mph 1.9 mph 85% 0 in 14 W/m2
05:59 50 °F 44.6 °F 29.8 in W 2.5 mph 1.2 mph 85% 0 in 16 W/m2
06:04 50 °F 44.6 °F 29.8 in NW 2.5 mph 0.6 mph 85% 0 in 18 W/m2
06:09 50 °F 44.6 °F 29.8 in W 3.1 mph 1.2 mph 85% 0 in 21 W/m2
06:14 50 °F 44.6 °F 29.8 in W 3.1 mph 1.9 mph 85% 0 in 25 W/m2
06:19 50 °F 44.6 °F 29.8 in W 2.5 mph 1.9 mph 86% 0 in 30 W/m2
06:24 50 °F 44.6 °F 29.8 in WNW 2.5 mph 1.2 mph 86% 0 in 32 W/m2
06:29 50 °F 46.4 °F 29.8 in W 2.5 mph 1.9 mph 86% 0 in 35 W/m2
06:34 50 °F 46.4 °F 29.8 in W 1.9 mph 0.6 mph 87% 0 in 39 W/m2
06:39 50 °F 46.4 °F 29.8 in NNW 2.5 mph 1.9 mph 87% 0 in 49 W/m2
06:44 50 °F 46.4 °F 29.8 in W 3.1 mph 2.5 mph 87% 0 in 70 W/m2
06:49 50 °F 46.4 °F 29.8 in W 3.1 mph 1.2 mph 87% 0 in 77 W/m2
06:54 50 °F 46.4 °F 29.8 in W 2.5 mph 0.6 mph 87% 0 in 77 W/m2
06:59 50 °F 46.4 °F 29.8 in W 3.1 mph 2.5 mph 87% 0 in 76 W/m2
07:04 50 °F 46.4 °F 29.8 in NW 1.9 mph 1.2 mph 87% 0 in 72 W/m2
07:09 50 °F 46.4 °F 29.8 in NNW 3.7 mph 2.5 mph 87% 0 in 74 W/m2
07:14 50 °F 46.4 °F 29.8 in NW 6.2 mph 4.3 mph 87% 0 in 90 W/m2
07:19 50 °F 46.4 °F 29.8 in WNW 3.7 mph 3.1 mph 87% 0 in 98 W/m2
07:24 50 °F 46.4 °F 29.8 in NW 6.2 mph 3.1 mph 86% 0 in 98 W/m2
07:29 50 °F 46.4 °F 29.8 in NW 3.7 mph 1.9 mph 86% 0 in 100 W/m2
07:34 50 °F 46.4 °F 29.8 in NW 3.7 mph 2.5 mph 86% 0 in 113 W/m2
07:39 50 °F 46.4 °F 29.8 in NW 5 mph 3.1 mph 86% 0 in 123 W/m2
07:44 50 °F 46.4 °F 29.8 in NW 5 mph 3.7 mph 86% 0 in 141 W/m2
07:49 51.8 °F 46.4 °F 29.8 in NW 2.5 mph 1.9 mph 86% 0 in 163 W/m2
07:54 51.8 °F 46.4 °F 29.8 in NW 2.5 mph 1.9 mph 86% 0 in 178 W/m2
07:59 51.8 °F 48.2 °F 29.8 in NW 6.2 mph 2.5 mph 86% 0 in 206 W/m2
08:04 51.8 °F 48.2 °F 29.8 in NNW 4.3 mph 2.5 mph 86% 0 in 213 W/m2
08:09 51.8 °F 48.2 °F 29.8 in NW 3.7 mph 2.5 mph 86% 0 in 209 W/m2
08:14 51.8 °F 48.2 °F 29.8 in W 3.1 mph 1.9 mph 86% 0 in 332 W/m2
08:19 51.8 °F 48.2 °F 29.8 in WNW 4.3 mph 2.5 mph 85% 0 in 332 W/m2
08:24 51.8 °F 48.2 °F 29.8 in NW 5.6 mph 3.1 mph 85% 0 in 323 W/m2
08:29 51.8 °F 48.2 °F 29.8 in N 4.3 mph 3.1 mph 84% 0 in 262 W/m2
08:34 51.8 °F 48.2 °F 29.8 in NW 4.3 mph 4.3 mph 84% 0 in 216 W/m2
08:39 51.8 °F 48.2 °F 29.8 in W 2.5 mph 0.6 mph 84% 0 in 200 W/m2
08:44 51.8 °F 48.2 °F 29.8 in NNW 5.6 mph 5 mph 84% 0 in 244 W/m2
08:49 51.8 °F 48.2 °F 29.8 in NNW 3.7 mph 2.5 mph 84% 0 in 274 W/m2
08:54 53.6 °F 48.2 °F 29.8 in NW 3.1 mph 3.1 mph 85% 0 in 272 W/m2
08:59 53.6 °F 48.2 °F 29.8 in WNW 3.7 mph 3.1 mph 85% 0 in 248 W/m2
09:04 53.6 °F 48.2 °F 29.8 in WNW 3.1 mph 1.9 mph 85% 0 in 241 W/m2
09:09 53.6 °F 48.2 °F 29.8 in WNW 3.7 mph 1.9 mph 85% 0 in 214 W/m2
09:14 53.6 °F 48.2 °F 29.8 in W 2.5 mph 2.5 mph 84% 0 in 185 W/m2
09:19 53.6 °F 48.2 °F 29.8 in WNW 2.5 mph 1.2 mph 84% 0 in 171 W/m2
09:24 53.6 °F 48.2 °F 29.8 in WNW 3.1 mph 1.9 mph 84% 0 in 206 W/m2
09:29 53.6 °F 48.2 °F 29.8 in NW 2.5 mph 1.9 mph 83% 0 in 234 W/m2
09:34 53.6 °F 48.2 °F 29.8 in W 3.7 mph 3.1 mph 83% 0 in 244 W/m2
09:39 53.6 °F 48.2 °F 29.8 in WNW 4.3 mph 3.7 mph 82% 0 in 269 W/m2
09:44 53.6 °F 48.2 °F 29.8 in WNW 5.6 mph 4.3 mph 81% 0 in 311 W/m2
09:49 55.4 °F 50 °F 29.8 in WNW 3.1 mph 2.5 mph 81% 0 in 490 W/m2
09:54 55.4 °F 50 °F 29.8 in NW 4.3 mph 3.1 mph 80% 0 in 497 W/m2
09:59 55.4 °F 50 °F 29.8 in NNW 6.8 mph 3.7 mph 80% 0 in 264 W/m2
10:04 55.4 °F 50 °F 29.8 in NW 3.1 mph 3.1 mph 80% 0 in 353 W/m2
10:09 55.4 °F 50 °F 29.8 in W 5.6 mph 3.7 mph 81% 0 in 671 W/m2
10:14 55.4 °F 50 °F 29.8 in NW 6.2 mph 4.3 mph 81% 0 in 671 W/m2
10:19 55.4 °F 50 °F 29.8 in NNW 5 mph 4.3 mph 79% 0 in 628 W/m2
10:24 57.2 °F 50 °F 29.8 in NNW 5.6 mph 3.7 mph 78% 0 in 643 W/m2
10:29 57.2 °F 50 °F 29.8 in NW 9.9 mph 6.8 mph 76% 0 in 694 W/m2
10:34 57.2 °F 50 °F 29.8 in NNW 6.8 mph 7.5 mph 76% 0 in 742 W/m2
10:39 57.2 °F 50 °F 29.8 in NNW 11.2 mph 9.3 mph 75% 0 in 809 W/m2
10:44 57.2 °F 50 °F 29.8 in N 11.2 mph 8.1 mph 76% 0 in 847 W/m2
10:49 57.2 °F 50 °F 29.8 in N 8.7 mph 6.2 mph 77% 0 in 844 W/m2
10:54 57.2 °F 50 °F 29.8 in NNW 8.1 mph 8.1 mph 77% 0 in 810 W/m2
10:59 57.2 °F 50 °F 29.8 in NNW 5 mph 4.3 mph 75% 0 in 821 W/m2
11:04 59 °F 50 °F 29.8 in N 5.6 mph 6.2 mph 75% 0 in 872 W/m2
11:09 59 °F 50 °F 29.8 in NNW 8.1 mph 6.2 mph 73% 0 in 889 W/m2
11:14 59 °F 50 °F 29.8 in NNW 9.9 mph 7.5 mph 74% 0 in 271 W/m2
11:19 57.2 °F 50 °F 29.8 in NNW 11.2 mph 8.1 mph 77% 0 in 870 W/m2
11:24 57.2 °F 50 °F 29.8 in N 12.4 mph 8.7 mph 80% 0 in 944 W/m2
11:29 57.2 °F 50 °F 29.8 in NNW 10.6 mph 8.7 mph 79% 0 in 288 W/m2
11:34 57.2 °F 50 °F 29.8 in N 8.7 mph 5.6 mph 79% 0 in 121 W/m2
11:39 55.4 °F 50 °F 29.8 in N 9.3 mph 6.8 mph 79% 0 in 74 W/m2
11:44 55.4 °F 50 °F 29.8 in NNW 9.3 mph 7.5 mph 80% 0 in 67 W/m2
11:49 55.4 °F 50 °F 29.8 in N 8.1 mph 6.2 mph 82% 0 in 79 W/m2
11:54 55.4 °F 50 °F 29.8 in N 5 mph 4.3 mph 83% 0 in 84 W/m2
11:59 55.4 °F 50 °F 29.8 in NNW 5.6 mph 5 mph 83% 0 in 83 W/m2
12:04 55.4 °F 50 °F 29.8 in NNW 5.6 mph 4.3 mph 83% 0 in 97 W/m2
12:09 55.4 °F 50 °F 29.8 in W 4.3 mph 4.3 mph 83% 0 in 174 W/m2
12:14 55.4 °F 50 °F 29.8 in N 5.6 mph 4.3 mph 83% 0 in 271 W/m2
12:19 55.4 °F 50 °F 29.8 in NNW 8.1 mph 6.2 mph 83% 0 in 264 W/m2
12:24 55.4 °F 50 °F 29.8 in NNW 7.5 mph 5 mph 82% 0 in 167 W/m2
12:29 55.4 °F 50 °F 29.8 in NNW 6.8 mph 5.6 mph 81% 0 in 120 W/m2
12:34 55.4 °F 50 °F 29.8 in NW 5.6 mph 5 mph 80% 0 in 83 W/m2
12:39 55.4 °F 50 °F 29.8 in WNW 7.5 mph 3.1 mph 80% 0 in 76 W/m2
12:44 55.4 °F 50 °F 29.8 in WNW 3.1 mph 2.5 mph 81% 0.01 in 67 W/m2
12:49 55.4 °F 50 °F 29.8 in NNW 6.2 mph 5.6 mph 82% 0.01 in 79 W/m2
12:54 55.4 °F 50 °F 29.8 in NW 6.2 mph 5.6 mph 83% 0.01 in 120 W/m2
12:59 55.4 °F 50 °F 29.8 in NW 6.2 mph 3.7 mph 84% 0.01 in 162 W/m2
13:04 53.6 °F 50 °F 29.8 in NNW 3.1 mph 1.9 mph 85% 0.01 in 165 W/m2
13:09 53.6 °F 50 °F 29.8 in W 2.5 mph 1.2 mph 86% 0.01 in 141 W/m2
13:14 53.6 °F 50 °F 29.8 in NW 5 mph 3.1 mph 86% 0.02 in 102 W/m2
13:19 53.6 °F 50 °F 29.8 in NW 3.7 mph 3.1 mph 86% 0.02 in 134 W/m2
13:24 53.6 °F 50 °F 29.8 in SW 3.7 mph 3.1 mph 86% 0.02 in 199 W/m2
13:29 53.6 °F 50 °F 29.8 in WSW 2.5 mph 3.1 mph 87% 0.02 in 274 W/m2
13:34 53.6 °F 50 °F 29.8 in N 4.3 mph 3.7 mph 87% 0.02 in 304 W/m2
13:39 55.4 °F 51.8 °F 29.8 in N 5 mph 4.3 mph 87% 0.02 in 304 W/m2
13:44 55.4 °F 51.8 °F 29.8 in N 5.6 mph 5 mph 87% 0.02 in 279 W/m2
13:49 55.4 °F 51.8 °F 29.8 in N 7.5 mph 6.2 mph 87% 0.01 in 373 W/m2
13:54 55.4 °F 51.8 °F 29.8 in NNW 7.5 mph 5 mph 86% 0.01 in 387 W/m2
13:59 55.4 °F 51.8 °F 29.8 in NW 6.8 mph 5 mph 86% 0.01 in 737 W/m2
14:04 57.2 °F 51.8 °F 29.8 in N 7.5 mph 6.2 mph 85% 0.01 in 461 W/m2
14:09 57.2 °F 51.8 °F 29.8 in NNW 8.1 mph 5.6 mph 84% 0.01 in 462 W/m2
14:14 57.2 °F 51.8 °F 29.8 in NNW 7.5 mph 5.6 mph 83% 0.01 in 485 W/m2
14:19 57.2 °F 51.8 °F 29.8 in N 8.7 mph 8.7 mph 81% 0 in 413 W/m2
14:24 57.2 °F 50 °F 29.8 in N 11.2 mph 8.7 mph 81% 0 in 420 W/m2
14:29 57.2 °F 50 °F 29.8 in N 9.9 mph 8.1 mph 81% 0 in 388 W/m2
14:34 55.4 °F 50 °F 29.8 in N 8.7 mph 8.1 mph 81% 0 in 297 W/m2
14:39 55.4 °F 50 °F 29.8 in N 11.2 mph 8.1 mph 81% 0 in 482 W/m2
14:44 55.4 °F 50 °F 29.8 in NNW 13.7 mph 8.1 mph 82% 0 in 482 W/m2
14:49 55.4 °F 50 °F 29.8 in NNW 9.3 mph 6.2 mph 82% 0 in 374 W/m2
14:54 57.2 °F 50 °F 29.8 in NNW 9.9 mph 8.1 mph 81% 0 in 520 W/m2
14:59 57.2 °F 50 °F 29.8 in N 10.6 mph 8.1 mph 80% 0 in 976 W/m2
Compliments of Weather Underground - 2 mb